sensor_id;sensor_type;location;lat;lon;timestamp;temperature;humidity
56103;DHT22;41970;48.774;9.280;2024-02-23T00:01:28;8.10;99.90
56103;DHT22;41970;48.774;9.280;2024-02-23T00:03:54;8.00;99.90
56103;DHT22;41970;48.774;9.280;2024-02-23T00:06:21;8.00;99.90
56103;DHT22;41970;48.774;9.280;2024-02-23T00:08:48;8.10;99.90
56103;DHT22;41970;48.774;9.280;2024-02-23T00:11:14;8.10;99.90
56103;DHT22;41970;48.774;9.280;2024-02-23T00:13:39;8.00;99.90
56103;DHT22;41970;48.774;9.280;2024-02-23T00:16:05;8.00;99.90
56103;DHT22;41970;48.774;9.280;2024-02-23T00:18:31;8.00;99.90
56103;DHT22;41970;48.774;9.280;2024-02-23T00:20:57;8.10;99.90
56103;DHT22;41970;48.774;9.280;2024-02-23T00:23:23;8.10;99.90
56103;DHT22;41970;48.774;9.280;2024-02-23T00:25:48;8.00;99.90
56103;DHT22;41970;48.774;9.280;2024-02-23T00:28:14;8.10;99.90
56103;DHT22;41970;48.774;9.280;2024-02-23T00:30:40;8.10;99.90
56103;DHT22;41970;48.774;9.280;2024-02-23T00:33:06;8.10;99.90
56103;DHT22;41970;48.774;9.280;2024-02-23T00:35:32;8.20;99.90
56103;DHT22;41970;48.774;9.280;2024-02-23T00:37:58;8.20;99.90
56103;DHT22;41970;48.774;9.280;2024-02-23T00:40:23;8.10;99.90
56103;DHT22;41970;48.774;9.280;2024-02-23T00:42:49;8.00;99.90
56103;DHT22;41970;48.774;9.280;2024-02-23T00:45:15;8.10;99.90
56103;DHT22;41970;48.774;9.280;2024-02-23T00:47:42;8.20;99.90
56103;DHT22;41970;48.774;9.280;2024-02-23T00:50:09;8.20;99.90
56103;DHT22;41970;48.774;9.280;2024-02-23T00:52:36;8.20;99.90
56103;DHT22;41970;48.774;9.280;2024-02-23T00:55:01;8.20;99.90
56103;DHT22;41970;48.774;9.280;2024-02-23T00:57:27;8.30;99.90
56103;DHT22;41970;48.774;9.280;2024-02-23T00:59:56;8.40;99.90
56103;DHT22;41970;48.774;9.280;2024-02-23T01:02:22;8.40;99.90
56103;DHT22;41970;48.774;9.280;2024-02-23T01:04:48;8.50;99.90
56103;DHT22;41970;48.774;9.280;2024-02-23T01:07:13;8.50;99.90
56103;DHT22;41970;48.774;9.280;2024-02-23T01:09:39;8.50;99.90
56103;DHT22;41970;48.774;9.280;2024-02-23T01:12:05;8.60;99.90
56103;DHT22;41970;48.774;9.280;2024-02-23T01:14:31;8.60;99.90
56103;DHT22;41970;48.774;9.280;2024-02-23T01:16:57;8.60;99.90
56103;DHT22;41970;48.774;9.280;2024-02-23T01:19:23;8.60;99.90
56103;DHT22;41970;48.774;9.280;2024-02-23T01:21:49;8.50;99.90
56103;DHT22;41970;48.774;9.280;2024-02-23T01:24:22;8.40;99.90
56103;DHT22;41970;48.774;9.280;2024-02-23T01:26:47;8.50;99.90
56103;DHT22;41970;48.774;9.280;2024-02-23T01:29:13;8.50;99.90
56103;DHT22;41970;48.774;9.280;2024-02-23T01:31:39;8.40;99.90
56103;DHT22;41970;48.774;9.280;2024-02-23T01:34:05;8.40;99.90
56103;DHT22;41970;48.774;9.280;2024-02-23T01:36:31;8.30;99.90
56103;DHT22;41970;48.774;9.280;2024-02-23T01:38:57;8.40;99.90
56103;DHT22;41970;48.774;9.280;2024-02-23T01:41:22;8.50;99.90
56103;DHT22;41970;48.774;9.280;2024-02-23T01:43:48;8.50;99.90
56103;DHT22;41970;48.774;9.280;2024-02-23T01:46:15;8.50;99.90
56103;DHT22;41970;48.774;9.280;2024-02-23T01:48:44;8.50;99.90
56103;DHT22;41970;48.774;9.280;2024-02-23T01:51:10;8.50;99.90
56103;DHT22;41970;48.774;9.280;2024-02-23T01:53:36;8.50;99.90
56103;DHT22;41970;48.774;9.280;2024-02-23T01:56:03;8.50;99.90
56103;DHT22;41970;48.774;9.280;2024-02-23T01:58:30;8.60;99.90
56103;DHT22;41970;48.774;9.280;2024-02-23T02:00:56;8.60;99.90
56103;DHT22;41970;48.774;9.280;2024-02-23T02:03:22;8.60;99.90
56103;DHT22;41970;48.774;9.280;2024-02-23T02:05:48;8.60;99.90
56103;DHT22;41970;48.774;9.280;2024-02-23T02:08:15;8.50;99.90
56103;DHT22;41970;48.774;9.280;2024-02-23T02:10:41;8.40;99.90
56103;DHT22;41970;48.774;9.280;2024-02-23T02:13:08;8.40;99.90
56103;DHT22;41970;48.774;9.280;2024-02-23T02:15:34;8.30;99.90
56103;DHT22;41970;48.774;9.280;2024-02-23T02:18:00;8.20;99.90
56103;DHT22;41970;48.774;9.280;2024-02-23T02:20:28;8.00;99.90
56103;DHT22;41970;48.774;9.280;2024-02-23T02:22:54;7.90;99.90
56103;DHT22;41970;48.774;9.280;2024-02-23T02:25:20;7.80;99.90
56103;DHT22;41970;48.774;9.280;2024-02-23T02:27:46;7.90;99.90
56103;DHT22;41970;48.774;9.280;2024-02-23T02:30:12;7.90;99.90
56103;DHT22;41970;48.774;9.280;2024-02-23T02:32:38;7.80;99.90
56103;DHT22;41970;48.774;9.280;2024-02-23T02:35:05;7.80;99.90
56103;DHT22;41970;48.774;9.280;2024-02-23T02:37:31;7.80;99.90
56103;DHT22;41970;48.774;9.280;2024-02-23T02:39:56;7.60;99.90
56103;DHT22;41970;48.774;9.280;2024-02-23T02:42:23;7.60;99.90
56103;DHT22;41970;48.774;9.280;2024-02-23T02:44:48;7.60;99.90
56103;DHT22;41970;48.774;9.280;2024-02-23T02:47:14;7.60;99.90
56103;DHT22;41970;48.774;9.280;2024-02-23T02:49:40;7.50;99.90
56103;DHT22;41970;48.774;9.280;2024-02-23T02:52:06;7.50;99.90
56103;DHT22;41970;48.774;9.280;2024-02-23T02:54:34;7.30;99.90
56103;DHT22;41970;48.774;9.280;2024-02-23T02:57:00;7.40;99.90
56103;DHT22;41970;48.774;9.280;2024-02-23T02:59:25;7.40;99.90
56103;DHT22;41970;48.774;9.280;2024-02-23T03:01:51;7.40;99.90
56103;DHT22;41970;48.774;9.280;2024-02-23T03:04:17;7.50;99.90
56103;DHT22;41970;48.774;9.280;2024-02-23T03:06:43;7.60;99.90
56103;DHT22;41970;48.774;9.280;2024-02-23T03:09:09;7.50;99.90
56103;DHT22;41970;48.774;9.280;2024-02-23T03:11:36;7.50;99.90
56103;DHT22;41970;48.774;9.280;2024-02-23T03:14:02;7.50;99.90
56103;DHT22;41970;48.774;9.280;2024-02-23T03:16:28;7.50;99.90
56103;DHT22;41970;48.774;9.280;2024-02-23T03:18:56;7.50;99.90
56103;DHT22;41970;48.774;9.280;2024-02-23T03:21:22;7.50;99.90
56103;DHT22;41970;48.774;9.280;2024-02-23T03:23:48;7.50;99.90
56103;DHT22;41970;48.774;9.280;2024-02-23T03:26:14;7.50;99.90
56103;DHT22;41970;48.774;9.280;2024-02-23T03:28:42;7.60;99.90
56103;DHT22;41970;48.774;9.280;2024-02-23T03:31:08;7.50;99.90
56103;DHT22;41970;48.774;9.280;2024-02-23T03:33:34;7.40;99.90
56103;DHT22;41970;48.774;9.280;2024-02-23T03:36:00;7.50;99.90
56103;DHT22;41970;48.774;9.280;2024-02-23T03:38:26;7.40;99.90
56103;DHT22;41970;48.774;9.280;2024-02-23T03:40:52;7.40;99.90
56103;DHT22;41970;48.774;9.280;2024-02-23T03:43:17;7.40;99.90
56103;DHT22;41970;48.774;9.280;2024-02-23T03:45:43;7.30;99.90
56103;DHT22;41970;48.774;9.280;2024-02-23T03:48:09;7.30;99.90
56103;DHT22;41970;48.774;9.280;2024-02-23T03:50:35;7.40;99.90
56103;DHT22;41970;48.774;9.280;2024-02-23T03:53:00;7.50;99.90
56103;DHT22;41970;48.774;9.280;2024-02-23T03:55:26;7.50;99.90
56103;DHT22;41970;48.774;9.280;2024-02-23T03:57:52;7.50;99.90
56103;DHT22;41970;48.774;9.280;2024-02-23T04:00:18;7.40;99.90
56103;DHT22;41970;48.774;9.280;2024-02-23T04:02:45;7.40;99.90
56103;DHT22;41970;48.774;9.280;2024-02-23T04:05:11;7.30;99.90
56103;DHT22;41970;48.774;9.280;2024-02-23T04:07:38;7.40;99.90
56103;DHT22;41970;48.774;9.280;2024-02-23T04:10:04;7.30;99.90
56103;DHT22;41970;48.774;9.280;2024-02-23T04:12:30;7.40;99.90
56103;DHT22;41970;48.774;9.280;2024-02-23T04:14:56;7.40;99.90
56103;DHT22;41970;48.774;9.280;2024-02-23T04:17:22;7.50;99.90
56103;DHT22;41970;48.774;9.280;2024-02-23T04:19:48;7.40;99.90
56103;DHT22;41970;48.774;9.280;2024-02-23T04:22:14;7.30;99.90
56103;DHT22;41970;48.774;9.280;2024-02-23T04:24:40;7.30;99.90
56103;DHT22;41970;48.774;9.280;2024-02-23T04:27:07;7.30;99.90
56103;DHT22;41970;48.774;9.280;2024-02-23T04:29:33;7.40;99.90
56103;DHT22;41970;48.774;9.280;2024-02-23T04:32:02;7.40;99.90
56103;DHT22;41970;48.774;9.280;2024-02-23T04:34:28;7.40;99.90
56103;DHT22;41970;48.774;9.280;2024-02-23T04:36:54;7.40;99.90
56103;DHT22;41970;48.774;9.280;2024-02-23T04:39:21;7.40;99.90
56103;DHT22;41970;48.774;9.280;2024-02-23T04:41:47;7.40;99.90
56103;DHT22;41970;48.774;9.280;2024-02-23T04:44:13;7.30;99.90
56103;DHT22;41970;48.774;9.280;2024-02-23T04:46:39;7.30;99.90
56103;DHT22;41970;48.774;9.280;2024-02-23T04:49:04;7.30;99.90
56103;DHT22;41970;48.774;9.280;2024-02-23T04:51:30;7.30;99.90
56103;DHT22;41970;48.774;9.280;2024-02-23T04:53:56;7.30;99.90
56103;DHT22;41970;48.774;9.280;2024-02-23T04:56:22;7.40;99.90
56103;DHT22;41970;48.774;9.280;2024-02-23T04:58:48;7.50;99.90
56103;DHT22;41970;48.774;9.280;2024-02-23T05:01:13;7.40;99.90
56103;DHT22;41970;48.774;9.280;2024-02-23T05:03:39;7.50;99.90
56103;DHT22;41970;48.774;9.280;2024-02-23T05:06:05;7.40;99.90
56103;DHT22;41970;48.774;9.280;2024-02-23T05:08:31;7.40;99.90
56103;DHT22;41970;48.774;9.280;2024-02-23T05:10:57;7.30;99.90
56103;DHT22;41970;48.774;9.280;2024-02-23T05:13:23;7.20;99.90
56103;DHT22;41970;48.774;9.280;2024-02-23T05:15:49;7.20;99.90
56103;DHT22;41970;48.774;9.280;2024-02-23T05:18:15;7.10;99.90
56103;DHT22;41970;48.774;9.280;2024-02-23T05:20:41;7.10;99.90
56103;DHT22;41970;48.774;9.280;2024-02-23T05:23:07;7.00;99.90
56103;DHT22;41970;48.774;9.280;2024-02-23T05:25:33;6.90;99.90
56103;DHT22;41970;48.774;9.280;2024-02-23T05:27:59;6.80;99.90
56103;DHT22;41970;48.774;9.280;2024-02-23T05:30:24;6.70;99.90
56103;DHT22;41970;48.774;9.280;2024-02-23T05:32:52;6.60;99.90
56103;DHT22;41970;48.774;9.280;2024-02-23T05:35:18;6.50;99.90
56103;DHT22;41970;48.774;9.280;2024-02-23T05:37:44;6.60;99.90
56103;DHT22;41970;48.774;9.280;2024-02-23T05:40:10;6.50;99.90
56103;DHT22;41970;48.774;9.280;2024-02-23T05:42:36;6.40;99.90
56103;DHT22;41970;48.774;9.280;2024-02-23T05:45:02;6.30;99.90
56103;DHT22;41970;48.774;9.280;2024-02-23T05:47:30;6.20;99.90
56103;DHT22;41970;48.774;9.280;2024-02-23T05:49:56;6.20;99.90
56103;DHT22;41970;48.774;9.280;2024-02-23T05:52:22;6.10;99.90
56103;DHT22;41970;48.774;9.280;2024-02-23T05:54:48;6.20;99.90
56103;DHT22;41970;48.774;9.280;2024-02-23T05:57:14;6.10;99.90
56103;DHT22;41970;48.774;9.280;2024-02-23T05:59:39;6.00;99.90
56103;DHT22;41970;48.774;9.280;2024-02-23T06:02:05;6.00;99.90
56103;DHT22;41970;48.774;9.280;2024-02-23T06:04:31;6.00;99.90
56103;DHT22;41970;48.774;9.280;2024-02-23T06:06:57;5.90;99.90
56103;DHT22;41970;48.774;9.280;2024-02-23T06:09:23;5.80;99.90
56103;DHT22;41970;48.774;9.280;2024-02-23T06:11:49;5.80;99.90
56103;DHT22;41970;48.774;9.280;2024-02-23T06:14:14;5.70;99.90
56103;DHT22;41970;48.774;9.280;2024-02-23T06:16:40;5.70;99.90
56103;DHT22;41970;48.774;9.280;2024-02-23T06:19:06;5.70;99.90
56103;DHT22;41970;48.774;9.280;2024-02-23T06:21:32;5.60;99.90
56103;DHT22;41970;48.774;9.280;2024-02-23T06:23:58;5.60;99.90
56103;DHT22;41970;48.774;9.280;2024-02-23T06:26:24;5.60;99.90
56103;DHT22;41970;48.774;9.280;2024-02-23T06:28:50;5.50;99.90
56103;DHT22;41970;48.774;9.280;2024-02-23T06:31:15;5.50;99.90
56103;DHT22;41970;48.774;9.280;2024-02-23T06:33:41;5.40;99.90
56103;DHT22;41970;48.774;9.280;2024-02-23T06:36:07;5.30;99.90
56103;DHT22;41970;48.774;9.280;2024-02-23T06:38:34;5.20;99.90
56103;DHT22;41970;48.774;9.280;2024-02-23T06:40:59;5.10;99.90
56103;DHT22;41970;48.774;9.280;2024-02-23T06:43:26;5.10;99.90
56103;DHT22;41970;48.774;9.280;2024-02-23T06:45:52;5.10;99.90
56103;DHT22;41970;48.774;9.280;2024-02-23T06:48:18;5.10;99.90
56103;DHT22;41970;48.774;9.280;2024-02-23T06:50:44;5.10;99.90
56103;DHT22;41970;48.774;9.280;2024-02-23T06:53:09;5.10;99.90
56103;DHT22;41970;48.774;9.280;2024-02-23T06:55:35;5.20;99.90
56103;DHT22;41970;48.774;9.280;2024-02-23T06:58:01;5.20;99.90
56103;DHT22;41970;48.774;9.280;2024-02-23T07:00:27;5.20;99.90
56103;DHT22;41970;48.774;9.280;2024-02-23T07:02:54;5.20;99.90
56103;DHT22;41970;48.774;9.280;2024-02-23T07:05:19;5.40;99.90
56103;DHT22;41970;48.774;9.280;2024-02-23T07:07:45;5.50;99.90
56103;DHT22;41970;48.774;9.280;2024-02-23T07:10:11;5.60;99.90
56103;DHT22;41970;48.774;9.280;2024-02-23T07:12:37;5.70;99.90
56103;DHT22;41970;48.774;9.280;2024-02-23T07:15:03;5.70;99.90
56103;DHT22;41970;48.774;9.280;2024-02-23T07:17:29;5.80;99.90
56103;DHT22;41970;48.774;9.280;2024-02-23T07:19:55;5.90;99.90
56103;DHT22;41970;48.774;9.280;2024-02-23T07:22:28;6.00;99.90
56103;DHT22;41970;48.774;9.280;2024-02-23T07:24:54;6.10;99.90
56103;DHT22;41970;48.774;9.280;2024-02-23T07:27:20;6.10;99.90
56103;DHT22;41970;48.774;9.280;2024-02-23T07:29:45;6.10;99.90
56103;DHT22;41970;48.774;9.280;2024-02-23T07:32:11;6.10;99.90
56103;DHT22;41970;48.774;9.280;2024-02-23T07:34:37;6.20;99.90
56103;DHT22;41970;48.774;9.280;2024-02-23T07:37:03;6.20;99.90
56103;DHT22;41970;48.774;9.280;2024-02-23T07:39:29;6.20;99.90
56103;DHT22;41970;48.774;9.280;2024-02-23T07:41:55;6.20;99.90
56103;DHT22;41970;48.774;9.280;2024-02-23T07:44:21;6.30;99.90
56103;DHT22;41970;48.774;9.280;2024-02-23T07:46:46;6.20;99.90
56103;DHT22;41970;48.774;9.280;2024-02-23T07:49:12;6.10;99.90
56103;DHT22;41970;48.774;9.280;2024-02-23T07:51:38;6.10;99.90
56103;DHT22;41970;48.774;9.280;2024-02-23T07:54:04;6.10;99.90
56103;DHT22;41970;48.774;9.280;2024-02-23T07:56:30;6.10;99.90
56103;DHT22;41970;48.774;9.280;2024-02-23T07:58:56;6.10;99.90
56103;DHT22;41970;48.774;9.280;2024-02-23T08:01:23;6.00;99.90
56103;DHT22;41970;48.774;9.280;2024-02-23T08:03:48;6.00;99.90
56103;DHT22;41970;48.774;9.280;2024-02-23T08:06:14;6.00;99.90
56103;DHT22;41970;48.774;9.280;2024-02-23T08:08:40;6.00;99.90
56103;DHT22;41970;48.774;9.280;2024-02-23T08:11:06;6.00;99.90
56103;DHT22;41970;48.774;9.280;2024-02-23T08:13:31;6.10;99.90
56103;DHT22;41970;48.774;9.280;2024-02-23T08:15:58;6.10;99.90
56103;DHT22;41970;48.774;9.280;2024-02-23T08:18:24;6.00;99.90
56103;DHT22;41970;48.774;9.280;2024-02-23T08:20:49;6.00;99.90
56103;DHT22;41970;48.774;9.280;2024-02-23T08:23:15;5.90;99.90
56103;DHT22;41970;48.774;9.280;2024-02-23T08:25:41;6.00;99.90
56103;DHT22;41970;48.774;9.280;2024-02-23T08:28:07;6.10;99.90
56103;DHT22;41970;48.774;9.280;2024-02-23T08:30:33;6.20;99.90
56103;DHT22;41970;48.774;9.280;2024-02-23T08:32:59;6.30;99.90
56103;DHT22;41970;48.774;9.280;2024-02-23T08:35:25;6.40;99.90
56103;DHT22;41970;48.774;9.280;2024-02-23T08:37:51;6.40;99.90
56103;DHT22;41970;48.774;9.280;2024-02-23T08:40:17;6.40;99.90
56103;DHT22;41970;48.774;9.280;2024-02-23T08:42:43;6.30;99.90
56103;DHT22;41970;48.774;9.280;2024-02-23T08:45:09;6.30;99.90
56103;DHT22;41970;48.774;9.280;2024-02-23T08:47:39;6.20;99.90
56103;DHT22;41970;48.774;9.280;2024-02-23T08:50:06;6.10;99.90
56103;DHT22;41970;48.774;9.280;2024-02-23T08:52:32;6.10;99.90
56103;DHT22;41970;48.774;9.280;2024-02-23T08:54:57;6.00;99.90
56103;DHT22;41970;48.774;9.280;2024-02-23T08:57:23;6.00;99.90
56103;DHT22;41970;48.774;9.280;2024-02-23T08:59:49;6.10;99.90
56103;DHT22;41970;48.774;9.280;2024-02-23T09:02:15;6.20;99.90
56103;DHT22;41970;48.774;9.280;2024-02-23T09:04:41;6.20;99.90
56103;DHT22;41970;48.774;9.280;2024-02-23T09:07:07;6.30;99.90
56103;DHT22;41970;48.774;9.280;2024-02-23T09:09:33;6.30;99.90
56103;DHT22;41970;48.774;9.280;2024-02-23T09:11:59;6.30;99.90
56103;DHT22;41970;48.774;9.280;2024-02-23T09:14:24;6.40;99.90
56103;DHT22;41970;48.774;9.280;2024-02-23T09:16:51;6.50;99.90
56103;DHT22;41970;48.774;9.280;2024-02-23T09:19:17;6.70;99.90
56103;DHT22;41970;48.774;9.280;2024-02-23T09:21:44;6.80;99.90
56103;DHT22;41970;48.774;9.280;2024-02-23T09:24:10;7.00;99.90
56103;DHT22;41970;48.774;9.280;2024-02-23T09:26:36;7.10;99.90
56103;DHT22;41970;48.774;9.280;2024-02-23T09:29:02;7.10;99.90
56103;DHT22;41970;48.774;9.280;2024-02-23T09:31:28;7.10;99.90
56103;DHT22;41970;48.774;9.280;2024-02-23T09:33:55;7.00;99.90
56103;DHT22;41970;48.774;9.280;2024-02-23T09:36:21;6.80;99.90
56103;DHT22;41970;48.774;9.280;2024-02-23T09:38:47;6.70;99.90
56103;DHT22;41970;48.774;9.280;2024-02-23T09:41:24;6.70;99.90
56103;DHT22;41970;48.774;9.280;2024-02-23T09:43:50;6.80;99.90
56103;DHT22;41970;48.774;9.280;2024-02-23T09:46:17;6.90;99.90
56103;DHT22;41970;48.774;9.280;2024-02-23T09:48:47;7.00;99.90
56103;DHT22;41970;48.774;9.280;2024-02-23T09:51:14;7.00;99.90
56103;DHT22;41970;48.774;9.280;2024-02-23T09:53:41;7.10;99.90
56103;DHT22;41970;48.774;9.280;2024-02-23T09:56:08;7.00;99.90
56103;DHT22;41970;48.774;9.280;2024-02-23T09:58:37;7.00;99.90
56103;DHT22;41970;48.774;9.280;2024-02-23T10:01:04;7.10;99.90
56103;DHT22;41970;48.774;9.280;2024-02-23T10:03:31;7.10;99.90
56103;DHT22;41970;48.774;9.280;2024-02-23T10:05:57;7.30;99.90
56103;DHT22;41970;48.774;9.280;2024-02-23T10:08:23;7.30;99.90
56103;DHT22;41970;48.774;9.280;2024-02-23T10:10:49;7.50;99.90
56103;DHT22;41970;48.774;9.280;2024-02-23T10:13:20;7.50;99.90
56103;DHT22;41970;48.774;9.280;2024-02-23T10:15:52;7.50;99.90
56103;DHT22;41970;48.774;9.280;2024-02-23T10:18:19;7.50;99.90
56103;DHT22;41970;48.774;9.280;2024-02-23T10:20:46;7.50;99.90
56103;DHT22;41970;48.774;9.280;2024-02-23T10:23:13;7.50;99.90
56103;DHT22;41970;48.774;9.280;2024-02-23T10:25:39;7.50;99.90
56103;DHT22;41970;48.774;9.280;2024-02-23T10:28:06;7.40;99.90
56103;DHT22;41970;48.774;9.280;2024-02-23T10:30:32;7.50;99.90
56103;DHT22;41970;48.774;9.280;2024-02-23T10:32:59;7.40;99.90
56103;DHT22;41970;48.774;9.280;2024-02-23T10:35:25;7.30;99.90
56103;DHT22;41970;48.774;9.280;2024-02-23T10:37:53;7.30;99.90
56103;DHT22;41970;48.774;9.280;2024-02-23T10:40:20;7.30;99.90
56103;DHT22;41970;48.774;9.280;2024-02-23T10:42:50;7.40;99.90
56103;DHT22;41970;48.774;9.280;2024-02-23T10:45:18;7.30;99.90
56103;DHT22;41970;48.774;9.280;2024-02-23T10:47:45;7.30;99.90
56103;DHT22;41970;48.774;9.280;2024-02-23T10:50:12;7.30;99.90
56103;DHT22;41970;48.774;9.280;2024-02-23T10:52:43;7.30;99.90
56103;DHT22;41970;48.774;9.280;2024-02-23T10:55:31;7.50;99.90
56103;DHT22;41970;48.774;9.280;2024-02-23T10:57:58;7.60;99.90
56103;DHT22;41970;48.774;9.280;2024-02-23T11:00:24;7.50;99.90
56103;DHT22;41970;48.774;9.280;2024-02-23T11:02:52;7.50;99.90
56103;DHT22;41970;48.774;9.280;2024-02-23T11:05:19;7.50;99.90
56103;DHT22;41970;48.774;9.280;2024-02-23T11:07:48;7.40;99.90
56103;DHT22;41970;48.774;9.280;2024-02-23T11:10:17;7.50;99.90
56103;DHT22;41970;48.774;9.280;2024-02-23T11:12:44;7.60;99.90
56103;DHT22;41970;48.774;9.280;2024-02-23T11:15:26;7.70;99.90
56103;DHT22;41970;48.774;9.280;2024-02-23T11:17:52;7.70;99.90
56103;DHT22;41970;48.774;9.280;2024-02-23T11:20:18;7.70;99.90
56103;DHT22;41970;48.774;9.280;2024-02-23T11:22:44;7.70;99.90
56103;DHT22;41970;48.774;9.280;2024-02-23T11:25:09;7.70;99.90
56103;DHT22;41970;48.774;9.280;2024-02-23T11:27:37;7.60;99.90
56103;DHT22;41970;48.774;9.280;2024-02-23T11:30:08;7.60;99.90
56103;DHT22;41970;48.774;9.280;2024-02-23T11:32:47;7.60;99.90
56103;DHT22;41970;48.774;9.280;2024-02-23T11:35:14;7.50;99.90
56103;DHT22;41970;48.774;9.280;2024-02-23T11:37:54;7.50;99.90
56103;DHT22;41970;48.774;9.280;2024-02-23T11:40:30;7.60;99.90
56103;DHT22;41970;48.774;9.280;2024-02-23T11:42:56;7.80;99.90
56103;DHT22;41970;48.774;9.280;2024-02-23T11:45:23;8.00;99.90
56103;DHT22;41970;48.774;9.280;2024-02-23T11:47:49;8.00;99.90
56103;DHT22;41970;48.774;9.280;2024-02-23T11:50:14;7.90;99.90
56103;DHT22;41970;48.774;9.280;2024-02-23T11:52:42;7.90;99.90
56103;DHT22;41970;48.774;9.280;2024-02-23T11:55:08;8.00;99.90
56103;DHT22;41970;48.774;9.280;2024-02-23T11:57:38;7.90;99.90
56103;DHT22;41970;48.774;9.280;2024-02-23T12:00:07;7.80;99.90
56103;DHT22;41970;48.774;9.280;2024-02-23T12:02:35;7.90;99.90
56103;DHT22;41970;48.774;9.280;2024-02-23T12:05:01;8.10;99.90
56103;DHT22;41970;48.774;9.280;2024-02-23T12:07:29;8.20;99.90
56103;DHT22;41970;48.774;9.280;2024-02-23T12:09:56;8.10;99.90
56103;DHT22;41970;48.774;9.280;2024-02-23T12:12:23;8.00;99.90
56103;DHT22;41970;48.774;9.280;2024-02-23T12:14:49;7.90;99.90
56103;DHT22;41970;48.774;9.280;2024-02-23T12:17:15;7.90;99.90
56103;DHT22;41970;48.774;9.280;2024-02-23T12:19:41;8.00;99.90
56103;DHT22;41970;48.774;9.280;2024-02-23T12:22:07;8.00;99.90
56103;DHT22;41970;48.774;9.280;2024-02-23T12:24:34;8.10;99.90
56103;DHT22;41970;48.774;9.280;2024-02-23T12:27:00;8.20;99.90
56103;DHT22;41970;48.774;9.280;2024-02-23T12:29:26;8.10;99.90
56103;DHT22;41970;48.774;9.280;2024-02-23T12:32:05;8.10;99.90
56103;DHT22;41970;48.774;9.280;2024-02-23T12:34:31;8.20;99.90
56103;DHT22;41970;48.774;9.280;2024-02-23T12:36:57;8.30;99.90
56103;DHT22;41970;48.774;9.280;2024-02-23T12:39:25;8.30;99.90
56103;DHT22;41970;48.774;9.280;2024-02-23T12:41:51;8.40;99.90
56103;DHT22;41970;48.774;9.280;2024-02-23T12:44:17;8.40;99.80
56103;DHT22;41970;48.774;9.280;2024-02-23T12:46:43;8.50;99.30
56103;DHT22;41970;48.774;9.280;2024-02-23T12:49:09;8.60;99.80
56103;DHT22;41970;48.774;9.280;2024-02-23T12:51:35;8.40;99.40
56103;DHT22;41970;48.774;9.280;2024-02-23T12:54:00;8.20;99.90
56103;DHT22;41970;48.774;9.280;2024-02-23T12:56:26;8.20;99.90
56103;DHT22;41970;48.774;9.280;2024-02-23T12:58:52;8.10;99.90
56103;DHT22;41970;48.774;9.280;2024-02-23T13:01:22;8.20;99.90
56103;DHT22;41970;48.774;9.280;2024-02-23T13:03:48;8.20;99.90
56103;DHT22;41970;48.774;9.280;2024-02-23T13:06:14;8.20;99.90
56103;DHT22;41970;48.774;9.280;2024-02-23T13:08:40;8.30;99.90
56103;DHT22;41970;48.774;9.280;2024-02-23T13:11:08;8.10;99.90
56103;DHT22;41970;48.774;9.280;2024-02-23T13:13:34;8.00;99.90
56103;DHT22;41970;48.774;9.280;2024-02-23T13:16:00;8.00;99.90
56103;DHT22;41970;48.774;9.280;2024-02-23T13:18:26;8.00;99.90
56103;DHT22;41970;48.774;9.280;2024-02-23T13:20:51;8.10;99.90
56103;DHT22;41970;48.774;9.280;2024-02-23T13:23:17;8.20;99.90
56103;DHT22;41970;48.774;9.280;2024-02-23T13:25:44;8.10;99.90
56103;DHT22;41970;48.774;9.280;2024-02-23T13:28:10;8.10;99.90
56103;DHT22;41970;48.774;9.280;2024-02-23T13:30:37;8.20;99.90
56103;DHT22;41970;48.774;9.280;2024-02-23T13:33:03;8.30;99.90
56103;DHT22;41970;48.774;9.280;2024-02-23T13:35:30;8.40;99.90
56103;DHT22;41970;48.774;9.280;2024-02-23T13:37:56;8.30;99.90
56103;DHT22;41970;48.774;9.280;2024-02-23T13:40:23;8.40;99.90
56103;DHT22;41970;48.774;9.280;2024-02-23T13:42:49;8.50;99.90
56103;DHT22;41970;48.774;9.280;2024-02-23T13:45:16;8.50;99.90
56103;DHT22;41970;48.774;9.280;2024-02-23T13:47:43;8.40;99.90
56103;DHT22;41970;48.774;9.280;2024-02-23T13:50:10;8.40;99.90
56103;DHT22;41970;48.774;9.280;2024-02-23T13:52:37;8.40;99.90
56103;DHT22;41970;48.774;9.280;2024-02-23T13:55:03;8.50;99.90
56103;DHT22;41970;48.774;9.280;2024-02-23T13:57:29;8.70;99.90
56103;DHT22;41970;48.774;9.280;2024-02-23T13:59:54;8.50;99.90
56103;DHT22;41970;48.774;9.280;2024-02-23T14:02:26;8.50;99.90
56103;DHT22;41970;48.774;9.280;2024-02-23T14:04:59;8.40;99.90
56103;DHT22;41970;48.774;9.280;2024-02-23T14:07:26;8.40;99.90
56103;DHT22;41970;48.774;9.280;2024-02-23T14:09:52;8.40;99.90
56103;DHT22;41970;48.774;9.280;2024-02-23T14:12:17;8.40;99.90
56103;DHT22;41970;48.774;9.280;2024-02-23T14:14:44;8.50;99.90
56103;DHT22;41970;48.774;9.280;2024-02-23T14:17:10;8.60;99.90
56103;DHT22;41970;48.774;9.280;2024-02-23T14:19:36;8.80;99.90
56103;DHT22;41970;48.774;9.280;2024-02-23T14:22:02;8.80;99.90
56103;DHT22;41970;48.774;9.280;2024-02-23T14:24:28;8.80;99.90
56103;DHT22;41970;48.774;9.280;2024-02-23T14:26:54;8.80;99.90
56103;DHT22;41970;48.774;9.280;2024-02-23T14:29:19;8.70;99.90
56103;DHT22;41970;48.774;9.280;2024-02-23T14:31:45;8.70;99.90
56103;DHT22;41970;48.774;9.280;2024-02-23T14:34:11;8.60;99.90
56103;DHT22;41970;48.774;9.280;2024-02-23T14:36:37;8.50;99.90
56103;DHT22;41970;48.774;9.280;2024-02-23T14:39:03;8.50;99.90
56103;DHT22;41970;48.774;9.280;2024-02-23T14:41:30;8.50;99.90
56103;DHT22;41970;48.774;9.280;2024-02-23T14:43:56;8.40;99.90
56103;DHT22;41970;48.774;9.280;2024-02-23T14:46:22;8.40;99.90
56103;DHT22;41970;48.774;9.280;2024-02-23T14:48:47;8.40;99.90
56103;DHT22;41970;48.774;9.280;2024-02-23T14:51:16;8.40;99.90
56103;DHT22;41970;48.774;9.280;2024-02-23T14:53:42;8.40;99.90
56103;DHT22;41970;48.774;9.280;2024-02-23T14:56:08;8.40;99.70
56103;DHT22;41970;48.774;9.280;2024-02-23T14:58:34;8.50;99.80
56103;DHT22;41970;48.774;9.280;2024-02-23T15:01:00;8.50;99.50
56103;DHT22;41970;48.774;9.280;2024-02-23T15:03:26;8.50;99.80
56103;DHT22;41970;48.774;9.280;2024-02-23T15:05:52;8.60;99.90
56103;DHT22;41970;48.774;9.280;2024-02-23T15:08:30;8.50;99.70
56103;DHT22;41970;48.774;9.280;2024-02-23T15:10:56;8.60;99.50
56103;DHT22;41970;48.774;9.280;2024-02-23T15:13:25;8.60;99.70
56103;DHT22;41970;48.774;9.280;2024-02-23T15:15:51;8.80;99.90
56103;DHT22;41970;48.774;9.280;2024-02-23T15:18:17;9.00;99.30
56103;DHT22;41970;48.774;9.280;2024-02-23T15:20:43;8.90;99.10
56103;DHT22;41970;48.774;9.280;2024-02-23T15:23:09;8.80;99.10
56103;DHT22;41970;48.774;9.280;2024-02-23T15:25:34;8.80;99.30
56103;DHT22;41970;48.774;9.280;2024-02-23T15:28:00;8.80;99.00
56103;DHT22;41970;48.774;9.280;2024-02-23T15:30:26;8.70;99.10
56103;DHT22;41970;48.774;9.280;2024-02-23T15:32:52;8.70;99.60
56103;DHT22;41970;48.774;9.280;2024-02-23T15:35:17;8.60;99.50
56103;DHT22;41970;48.774;9.280;2024-02-23T15:37:43;8.60;99.60
56103;DHT22;41970;48.774;9.280;2024-02-23T15:40:10;8.60;99.40